Time;durP1;ratioP1;P1;durP2;ratioP2;P2;SDS_P1;SDS_P2;PMS_P1;PMS_P2;Temp;Humidity;BMP_temperature;BMP_pressure;BME280_temperature;BME280_humidity;BME280_pressure;Samples;Min_cycle;Max_cycle;Signal;HPM_P1;HPM_P2
2022/10/17 00:01:13;;;;;;;10.30;3.25;;;13.50;99.90;;;;;;4673618;28;10000168;-76
2022/10/17 00:03:39;;;;;;;3.45;3.15;;;13.50;99.90;;;;;;5019106;28;20030;-76
2022/10/17 00:06:14;;;;;;;3.30;3.00;;;13.50;99.90;;;;;;5025824;28;20212;-76
2022/10/17 00:08:41;;;;;;;5.72;3.10;;;13.50;99.90;;;;;;5023475;28;20057;-76
2022/10/17 00:11:13;;;;;;;3.15;2.85;;;13.50;99.90;;;;;;5026283;28;20581;-76
2022/10/17 00:13:38;;;;;;;3.15;2.85;;;13.50;99.90;;;;;;5025187;28;20451;-76
2022/10/17 00:16:05;;;;;;;3.38;3.05;;;13.50;99.90;;;;;;5022138;28;20116;-76
2022/10/17 00:18:30;;;;;;;3.80;3.40;;;13.40;99.90;;;;;;5022906;28;20043;-76
2022/10/17 00:20:56;;;;;;;4.53;3.40;;;13.40;99.90;;;;;;5021597;28;20025;-76
2022/10/17 00:23:22;;;;;;;3.42;3.15;;;13.50;99.90;;;;;;5025051;28;20033;-76
2022/10/17 00:25:57;;;;;;;8.43;3.70;;;13.40;99.90;;;;;;5020316;28;20052;-76
2022/10/17 00:28:23;;;;;;;9.15;4.32;;;13.40;99.90;;;;;;5024617;28;20017;-76
2022/10/17 00:30:55;;;;;;;4.50;3.75;;;13.40;99.90;;;;;;5025176;28;20032;-76
2022/10/17 00:33:21;;;;;;;5.90;4.43;;;13.40;99.90;;;;;;5028252;28;20085;-76
2022/10/17 00:35:46;;;;;;;4.78;3.70;;;13.50;99.90;;;;;;5023108;28;20053;-76
2022/10/17 00:38:12;;;;;;;3.80;3.40;;;13.50;99.90;;;;;;5028932;28;20030;-76
2022/10/17 00:40:37;;;;;;;3.67;3.38;;;13.40;99.90;;;;;;5025375;28;20040;-76
2022/10/17 00:43:03;;;;;;;4.68;3.55;;;13.40;99.90;;;;;;5025828;28;20017;-76
2022/10/17 00:45:30;;;;;;;4.97;3.90;;;13.40;99.90;;;;;;5023117;28;20056;-76
2022/10/17 00:48:04;;;;;;;3.75;3.30;;;13.40;99.90;;;;;;5025830;28;20025;-76
2022/10/17 00:50:30;;;;;;;4.15;3.53;;;13.40;99.90;;;;;;5026253;28;20073;-76
2022/10/17 00:53:00;;;;;;;4.13;3.40;;;13.30;99.90;;;;;;5022269;28;20026;-76
2022/10/17 00:55:32;;;;;;;4.10;3.70;;;13.30;99.90;;;;;;5031407;28;20485;-76
2022/10/17 00:58:01;;;;;;;3.67;3.20;;;13.30;99.90;;;;;;5029630;28;20037;-76
2022/10/17 01:00:27;;;;;;;4.13;3.70;;;13.20;99.90;;;;;;5024066;28;20542;-76
2022/10/17 01:02:52;;;;;;;3.63;3.30;;;13.30;99.90;;;;;;5020229;28;20025;-76
2022/10/17 01:05:19;;;;;;;3.33;3.03;;;13.20;99.90;;;;;;5030972;28;20028;-76
2022/10/17 01:07:46;;;;;;;8.93;3.97;;;13.20;99.90;;;;;;5028094;28;20112;-76
2022/10/17 01:10:13;;;;;;;5.22;3.47;;;13.20;99.90;;;;;;5025305;28;20099;-76
2022/10/17 01:13:09;;;;;;;5.45;3.63;;;13.20;99.90;;;;;;5028207;28;20039;-76
2022/10/17 01:16:15;;;;;;;3.40;3.10;;;13.20;99.90;;;;;;5027234;28;20048;-76
2022/10/17 01:19:22;;;;;;;3.53;3.22;;;13.20;99.90;;;;;;5032648;28;20112;-76
2022/10/17 01:22:20;;;;;;;4.70;3.78;;;13.20;99.90;;;;;;4968533;28;20041;-76
2022/10/17 01:25:01;;;;;;;4.03;3.67;;;13.20;99.90;;;;;;5025978;28;20029;-76
2022/10/17 01:28:15;;;;;;;4.68;3.55;;;13.20;99.90;;;;;;5024708;28;20404;-76
2022/10/17 01:30:44;;;;;;;3.80;3.50;;;13.20;99.90;;;;;;5025638;28;20042;-76
2022/10/17 01:33:23;;;;;;;4.63;3.85;;;13.20;99.90;;;;;;5020761;28;20502;-76
2022/10/17 01:36:03;;;;;;;4.22;3.50;;;13.20;99.90;;;;;;5028604;28;20635;-76
2022/10/17 01:38:32;;;;;;;3.72;3.42;;;;;;;;;;5026574;28;20549;-76
2022/10/17 01:41:13;;;;;;;3.88;3.47;;;13.10;99.90;;;;;;5028872;28;20038;-76
2022/10/17 01:43:48;;;;;;;4.30;3.30;;;13.10;99.90;;;;;;5021327;28;20021;-76
2022/10/17 01:46:29;;;;;;;4.32;3.92;;;13.10;99.90;;;;;;5026243;28;20026;-76
2022/10/17 01:48:59;;;;;;;3.97;3.65;;;13.10;99.90;;;;;;5022793;28;20595;-76
2022/10/17 01:51:42;;;;;;;4.40;3.63;;;13.10;99.90;;;;;;5020908;28;20041;-76
2022/10/17 01:54:20;;;;;;;3.92;3.63;;;13.10;99.90;;;;;;5023271;28;20017;-76
2022/10/17 01:56:48;;;;;;;5.05;4.55;;;13.10;99.90;;;;;;5024585;28;20096;-76
2022/10/17 01:59:25;;;;;;;3.90;3.55;;;13.10;99.90;;;;;;5027587;28;20110;-76
2022/10/17 02:01:54;;;;;;;13.02;3.40;;;13.10;99.90;;;;;;5027420;28;20364;-76
2022/10/17 02:04:20;;;;;;;3.33;3.13;;;13.10;99.90;;;;;;5027784;28;20014;-76
2022/10/17 02:06:46;;;;;;;3.65;2.83;;;13.10;99.90;;;;;;5030746;28;20385;-76
2022/10/17 02:09:21;;;;;;;2.75;2.55;;;13.10;99.90;;;;;;5027801;28;20029;-76
2022/10/17 02:12:10;;;;;;;3.95;2.90;;;13.10;99.90;;;;;;5023077;28;20163;-76
2022/10/17 02:14:36;;;;;;;3.65;3.08;;;13.00;99.90;;;;;;5027534;28;20036;-76
2022/10/17 02:17:12;;;;;;;8.00;4.55;;;13.10;99.90;;;;;;5024404;28;20393;-76
2022/10/17 02:20:12;;;;;;;4.03;3.63;;;13.10;99.90;;;;;;5028637;28;20052;-76
2022/10/17 02:22:55;;;;;;;4.82;3.97;;;13.10;99.90;;;;;;5021193;28;20382;-76
2022/10/17 02:25:29;;;;;;;3.97;3.42;;;13.10;99.90;;;;;;5022235;28;20025;-76
2022/10/17 02:27:57;;;;;;;4.00;3.70;;;13.00;99.90;;;;;;5023235;28;20037;-76
2022/10/17 02:30:39;;;;;;;4.32;3.70;;;13.00;99.90;;;;;;5024325;28;20044;-76
2022/10/17 02:33:12;;;;;;;3.70;3.30;;;13.00;99.90;;;;;;5025754;28;20103;-76
2022/10/17 02:35:42;;;;;;;8.27;3.70;;;12.90;99.90;;;;;;5023546;28;20462;-76
2022/10/17 02:38:10;;;;;;;4.05;3.65;;;12.90;99.90;;;;;;5027597;28;20401;-76
2022/10/17 02:40:36;;;;;;;5.10;3.72;;;12.90;99.90;;;;;;5025598;28;20045;-76
2022/10/17 02:43:02;;;;;;;5.07;3.80;;;12.90;99.90;;;;;;5019708;28;20021;-76
2022/10/17 02:45:34;;;;;;;6.60;3.97;;;12.90;99.90;;;;;;5026198;28;20039;-76
2022/10/17 02:48:21;;;;;;;5.72;4.20;;;12.80;99.90;;;;;;5024927;28;20218;-77
2022/10/17 02:50:55;;;;;;;4.30;3.92;;;12.80;99.90;;;;;;5028003;28;20170;-76
2022/10/17 02:54:11;;;;;;;4.55;3.78;;;12.80;99.90;;;;;;5015608;28;20028;-76
2022/10/17 02:56:45;;;;;;;4.50;3.88;;;12.80;99.90;;;;;;5047006;28;20046;-76
2022/10/17 02:59:14;;;;;;;3.90;3.50;;;12.70;99.90;;;;;;5051941;28;20067;-76
2022/10/17 03:01:40;;;;;;;3.42;3.13;;;12.70;99.90;;;;;;5030345;28;20044;-76
2022/10/17 03:04:12;;;;;;;5.68;3.65;;;12.70;99.90;;;;;;5027182;28;20087;-76
2022/10/17 03:06:39;;;;;;;3.70;3.25;;;12.70;99.90;;;;;;5028548;28;20062;-76
2022/10/17 03:09:06;;;;;;;4.13;3.70;;;12.70;99.90;;;;;;5025201;28;20091;-76
2022/10/17 03:11:32;;;;;;;4.95;3.80;;;12.70;99.90;;;;;;5019150;28;20033;-75
2022/10/17 03:13:58;;;;;;;4.43;3.95;;;12.70;99.90;;;;;;5020984;28;20033;-75
2022/10/17 03:16:23;;;;;;;4.75;4.22;;;12.80;99.90;;;;;;5021256;28;20386;-76
2022/10/17 03:18:49;;;;;;;4.15;3.67;;;12.80;99.90;;;;;;5019853;28;20041;-76
2022/10/17 03:21:15;;;;;;;4.32;3.40;;;12.80;99.90;;;;;;5028336;28;21639;-76
2022/10/17 03:23:40;;;;;;;4.47;3.72;;;12.80;99.90;;;;;;5023752;28;20589;-75
2022/10/17 03:26:06;;;;;;;4.22;3.28;;;12.80;99.90;;;;;;5020754;28;20635;-76
2022/10/17 03:28:32;;;;;;;3.67;3.33;;;12.80;99.90;;;;;;5026210;28;20098;-76
2022/10/17 03:30:58;;;;;;;5.40;3.15;;;12.80;99.90;;;;;;5026897;28;20029;-76
2022/10/17 03:33:23;;;;;;;4.00;3.58;;;12.80;99.90;;;;;;5022329;28;20168;-76
2022/10/17 03:35:49;;;;;;;5.13;3.20;;;12.80;99.90;;;;;;5025072;28;20678;-76
2022/10/17 03:38:15;;;;;;;3.60;3.30;;;12.80;99.90;;;;;;5030676;28;20036;-76
2022/10/17 03:40:40;;;;;;;4.13;3.42;;;12.80;99.90;;;;;;5024690;28;20044;-75
2022/10/17 03:43:06;;;;;;;4.32;3.35;;;12.80;99.90;;;;;;5023533;28;20076;-75
2022/10/17 03:45:31;;;;;;;5.97;3.72;;;12.80;99.90;;;;;;5025503;28;20029;-76
2022/10/17 03:47:58;;;;;;;5.50;3.65;;;12.80;99.90;;;;;;5023207;28;20359;-75
2022/10/17 03:50:24;;;;;;;3.40;3.10;;;12.90;99.90;;;;;;5024315;28;20049;-76
2022/10/17 03:52:49;;;;;;;6.03;3.33;;;12.90;99.90;;;;;;5022341;28;20317;-76
2022/10/17 03:55:16;;;;;;;5.15;3.28;;;12.90;99.90;;;;;;5023025;28;20048;-76
2022/10/17 03:57:41;;;;;;;3.60;3.30;;;12.90;99.90;;;;;;5026922;28;20052;-76
2022/10/17 04:00:08;;;;;;;3.35;3.00;;;12.80;99.90;;;;;;5028238;28;20553;-76
2022/10/17 04:02:34;;;;;;;3.95;3.20;;;12.90;99.90;;;;;;5020630;28;20091;-76
2022/10/17 04:05:00;;;;;;;4.10;3.38;;;12.80;99.90;;;;;;5022990;28;20025;-76
2022/10/17 04:07:26;;;;;;;5.43;3.17;;;12.80;99.90;;;;;;5026233;28;20055;-76
2022/10/17 04:09:51;;;;;;;5.40;3.40;;;12.80;99.90;;;;;;5032106;28;20743;-76
2022/10/17 04:12:17;;;;;;;4.45;3.50;;;12.80;99.90;;;;;;5027199;28;20782;-76
2022/10/17 04:14:43;;;;;;;4.85;3.03;;;12.80;99.90;;;;;;5027609;28;20032;-76
2022/10/17 04:17:09;;;;;;;15.05;4.22;;;12.80;99.90;;;;;;5026504;28;20189;-75
2022/10/17 04:19:35;;;;;;;4.47;3.92;;;12.80;99.90;;;;;;5023855;28;20033;-76
2022/10/17 04:22:02;;;;;;;4.15;3.75;;;12.80;99.90;;;;;;5026602;28;20197;-76
2022/10/17 04:24:27;;;;;;;7.95;3.92;;;12.80;99.90;;;;;;5022279;28;20022;-76
2022/10/17 04:26:53;;;;;;;5.93;4.10;;;12.70;99.90;;;;;;5027807;28;20487;-76
2022/10/17 04:29:20;;;;;;;8.52;4.72;;;12.70;99.90;;;;;;5025593;28;20041;-76
2022/10/17 04:31:45;;;;;;;8.32;4.32;;;12.70;99.90;;;;;;5021957;28;20033;-76
2022/10/17 04:34:13;;;;;;;5.78;4.40;;;12.70;99.90;;;;;;5034019;28;20079;-76
2022/10/17 04:36:39;;;;;;;5.30;4.10;;;12.70;99.90;;;;;;5027072;28;20105;-76
2022/10/17 04:39:04;;;;;;;6.07;4.45;;;12.70;99.90;;;;;;5028764;28;20547;-76
2022/10/17 04:41:30;;;;;;;5.57;3.70;;;12.60;99.90;;;;;;5032148;28;20033;-76
2022/10/17 04:43:56;;;;;;;5.05;3.33;;;12.70;99.90;;;;;;5029277;28;20047;-76
2022/10/17 04:46:22;;;;;;;6.07;3.90;;;12.60;99.90;;;;;;5028341;28;20499;-75
2022/10/17 04:48:47;;;;;;;10.05;4.20;;;12.70;99.90;;;;;;5033141;28;20056;-76
2022/10/17 04:51:17;;;;;;;8.55;5.10;;;12.60;99.90;;;;;;5027154;28;20021;-75
2022/10/17 04:53:43;;;;;;;6.20;5.00;;;12.60;99.90;;;;;;5035282;28;20044;-75
2022/10/17 04:56:18;;;;;;;9.40;4.72;;;12.60;99.90;;;;;;5024242;28;20429;-76
2022/10/17 04:58:44;;;;;;;6.35;5.20;;;12.70;99.90;;;;;;5028279;28;20469;-76
2022/10/17 05:01:14;;;;;;;5.30;4.80;;;12.70;99.90;;;;;;5032358;28;20459;-76
2022/10/17 05:03:41;;;;;;;5.40;4.75;;;12.60;99.90;;;;;;5027885;28;20449;-76
2022/10/17 05:06:14;;;;;;;7.30;5.28;;;12.70;99.90;;;;;;5025871;28;20482;-76
2022/10/17 05:08:40;;;;;;;5.97;4.30;;;12.70;99.90;;;;;;5030808;28;20027;-76
2022/10/17 05:11:16;;;;;;;7.93;5.00;;;12.60;99.90;;;;;;5027722;28;20098;-76
2022/10/17 05:13:41;;;;;;;5.70;4.35;;;12.70;99.90;;;;;;5035182;28;20028;-76
2022/10/17 05:16:07;;;;;;;8.85;4.18;;;12.70;99.90;;;;;;5024311;28;20405;-76
2022/10/17 05:18:32;;;;;;;6.60;3.85;;;12.70;99.90;;;;;;5022718;28;20116;-75
2022/10/17 05:20:58;;;;;;;5.28;3.40;;;12.70;99.90;;;;;;5024337;28;20037;-76
2022/10/17 05:23:24;;;;;;;6.60;3.78;;;12.70;99.90;;;;;;5029815;28;20039;-76
2022/10/17 05:25:55;;;;;;;4.22;3.83;;;12.70;99.90;;;;;;5027818;28;20157;-76
2022/10/17 05:28:22;;;;;;;5.95;4.05;;;12.70;99.90;;;;;;5031542;28;20090;-76
2022/10/17 05:30:48;;;;;;;5.55;3.92;;;12.70;99.90;;;;;;5031257;28;20052;-76
2022/10/17 05:33:13;;;;;;;8.38;4.03;;;12.80;99.90;;;;;;5026284;28;20029;-76
2022/10/17 05:35:39;;;;;;;5.80;3.85;;;12.80;99.90;;;;;;5033334;28;20053;-76
2022/10/17 05:38:05;;;;;;;6.18;3.92;;;12.80;99.90;;;;;;5030131;28;20045;-76
2022/10/17 05:40:30;;;;;;;8.20;3.95;;;12.80;99.90;;;;;;5033597;28;21483;-75
2022/10/17 05:42:56;;;;;;;4.70;3.50;;;12.80;99.90;;;;;;5026875;28;20182;-76
2022/10/17 05:45:22;;;;;;;4.50;3.55;;;12.80;99.90;;;;;;5031192;28;20035;-76
2022/10/17 05:47:47;;;;;;;4.88;3.40;;;12.80;99.90;;;;;;5029643;28;20022;-76
2022/10/17 05:50:13;;;;;;;6.28;3.65;;;12.80;99.90;;;;;;5034815;28;20087;-76
2022/10/17 05:52:39;;;;;;;3.92;3.40;;;12.90;99.90;;;;;;5029927;28;20067;-76
2022/10/17 05:55:05;;;;;;;5.38;3.42;;;12.80;99.90;;;;;;5029273;28;20028;-76
2022/10/17 05:57:31;;;;;;;3.85;3.45;;;12.80;99.90;;;;;;5023191;28;20033;-76
2022/10/17 05:59:56;;;;;;;5.93;3.28;;;12.80;99.90;;;;;;5026711;28;20567;-76
2022/10/17 06:02:22;;;;;;;3.40;3.10;;;12.90;99.90;;;;;;5027829;28;20087;-76
2022/10/17 06:04:48;;;;;;;8.38;3.60;;;12.90;99.90;;;;;;5027834;28;20033;-76
2022/10/17 06:07:15;;;;;;;3.40;3.10;;;12.90;99.90;;;;;;5035634;28;20444;-76
2022/10/17 06:09:40;;;;;;;4.72;3.20;;;12.90;99.90;;;;;;5032876;28;20599;-76
2022/10/17 06:12:06;;;;;;;7.43;3.47;;;12.90;99.90;;;;;;5030298;28;20036;-76
2022/10/17 06:14:32;;;;;;;5.80;3.28;;;12.90;99.90;;;;;;5025458;28;20381;-76
2022/10/17 06:16:58;;;;;;;4.68;3.35;;;12.90;99.90;;;;;;5025679;28;20029;-76
2022/10/17 06:19:23;;;;;;;4.97;3.42;;;12.90;99.90;;;;;;5037675;28;20677;-76
2022/10/17 06:21:49;;;;;;;4.57;3.55;;;13.00;99.90;;;;;;5024723;28;20044;-76
2022/10/17 06:24:15;;;;;;;4.22;3.40;;;13.00;99.90;;;;;;5023534;28;20032;-76
2022/10/17 06:26:41;;;;;;;4.22;3.83;;;13.00;99.90;;;;;;5027865;28;20380;-76
2022/10/17 06:29:06;;;;;;;6.82;3.30;;;13.00;99.90;;;;;;5022553;28;20337;-76
2022/10/17 06:31:32;;;;;;;6.47;3.47;;;13.00;99.90;;;;;;5027559;28;20069;-76
2022/10/17 06:33:58;;;;;;;4.30;3.40;;;13.00;99.90;;;;;;5029813;28;20033;-76
2022/10/17 06:36:23;;;;;;;6.93;4.05;;;13.00;99.90;;;;;;5015758;28;20117;-76
2022/10/17 06:38:49;;;;;;;10.18;3.67;;;13.10;99.90;;;;;;5020173;28;20060;-76
2022/10/17 06:41:17;;;;;;;7.45;3.72;;;13.20;99.90;;;;;;5023030;28;20051;-76
2022/10/17 06:43:45;;;;;;;20.67;4.63;;;13.20;99.90;;;;;;5028029;28;20487;-75
2022/10/17 06:46:15;;;;;;;9.13;4.10;;;13.20;99.90;;;;;;5033782;28;20029;-76
2022/10/17 06:48:41;;;;;;;5.63;3.88;;;13.30;99.90;;;;;;5037660;28;20125;-76
2022/10/17 06:51:10;;;;;;;6.13;4.10;;;13.40;99.90;;;;;;5029078;28;20029;-76
2022/10/17 06:53:38;;;;;;;7.68;4.40;;;13.50;99.90;;;;;;5020941;28;20043;-75
2022/10/17 06:56:05;;;;;;;7.65;4.07;;;13.50;99.90;;;;;;5025393;28;20056;-75
2022/10/17 06:58:34;;;;;;;6.00;4.03;;;13.50;99.90;;;;;;5037293;28;20083;-75
2022/10/17 07:01:02;;;;;;;4.07;3.55;;;13.50;99.90;;;;;;5026935;28;20431;-75
2022/10/17 07:03:29;;;;;;;7.75;3.70;;;13.50;99.90;;;;;;5031649;28;20460;-75
2022/10/17 07:05:55;;;;;;;4.32;3.40;;;13.50;99.90;;;;;;5021789;28;20630;-75
2022/10/17 07:08:21;;;;;;;4.20;3.78;;;13.60;99.90;;;;;;5027836;28;20112;-75
2022/10/17 07:10:47;;;;;;;9.15;4.47;;;13.60;99.90;;;;;;5043878;28;20036;-75
2022/10/17 07:13:13;;;;;;;5.93;4.00;;;13.60;99.90;;;;;;5022237;28;20051;-75
2022/10/17 07:15:39;;;;;;;6.47;4.65;;;13.70;99.90;;;;;;5033710;28;20252;-75
2022/10/17 07:18:05;;;;;;;6.07;4.20;;;13.70;99.90;;;;;;5026593;28;20029;-75
2022/10/17 07:20:31;;;;;;;4.88;4.03;;;13.80;99.90;;;;;;5029062;28;20533;-75
2022/10/17 07:22:56;;;;;;;4.45;3.50;;;13.80;99.90;;;;;;5026779;28;20532;-75
2022/10/17 07:25:22;;;;;;;4.82;3.92;;;13.90;99.90;;;;;;5033452;28;20040;-75
2022/10/17 07:27:49;;;;;;;4.88;3.63;;;14.00;99.90;;;;;;5026465;28;20033;-75
2022/10/17 07:30:15;;;;;;;5.28;3.70;;;14.10;99.90;;;;;;5027304;28;20059;-75
2022/10/17 07:32:42;;;;;;;4.18;3.78;;;14.20;99.90;;;;;;5030824;28;20087;-75
2022/10/17 07:35:08;;;;;;;7.57;3.83;;;14.30;99.90;;;;;;5025272;28;20528;-75
2022/10/17 07:37:34;;;;;;;9.88;4.75;;;14.40;99.90;;;;;;5044111;28;20057;-75
2022/10/17 07:40:00;;;;;;;10.30;4.50;;;14.50;99.90;;;;;;5033944;28;20128;-75
2022/10/17 07:42:27;;;;;;;6.47;4.50;;;14.60;99.90;;;;;;5027018;28;20104;-74
2022/10/17 07:44:53;;;;;;;11.60;5.57;;;14.70;99.90;;;;;;5031981;28;20089;-75
2022/10/17 07:47:19;;;;;;;9.18;5.80;;;14.80;99.90;;;;;;5033940;28;20115;-75
2022/10/17 07:49:44;;;;;;;12.85;6.05;;;14.90;99.90;;;;;;5035376;28;20191;-74
2022/10/17 07:52:11;;;;;;;11.20;4.90;;;15.00;99.90;;;;;;5037562;28;20397;-75
2022/10/17 07:54:37;;;;;;;10.05;4.53;;;15.00;99.90;;;;;;5032883;28;20253;-75
2022/10/17 07:57:03;;;;;;;10.93;4.60;;;15.10;99.90;;;;;;5034514;28;20025;-75
2022/10/17 07:59:29;;;;;;;7.72;4.07;;;15.20;99.90;;;;;;5023131;28;20437;-75
2022/10/17 08:01:58;;;;;;;8.00;4.13;;;15.20;99.90;;;;;;5026751;28;20025;-75
2022/10/17 08:04:24;;;;;;;9.40;4.00;;;15.30;99.90;;;;;;5032281;28;20029;-74
2022/10/17 08:06:51;;;;;;;5.82;3.35;;;15.30;99.90;;;;;;5029244;28;20625;-75
2022/10/17 08:09:17;;;;;;;7.18;3.40;;;15.40;99.90;;;;;;5039018;28;20366;-74
2022/10/17 08:11:43;;;;;;;3.88;3.40;;;15.40;99.90;;;;;;5030173;28;20314;-74
2022/10/17 08:14:12;;;;;;;8.65;3.65;;;15.40;99.90;;;;;;5033930;28;20033;-74
2022/10/17 08:16:39;;;;;;;7.72;4.10;;;15.60;99.90;;;;;;5023246;28;20048;-74
2022/10/17 08:19:07;;;;;;;5.70;3.58;;;15.60;99.90;;;;;;5030539;28;20057;-74
2022/10/17 08:21:33;;;;;;;9.10;3.60;;;15.70;99.90;;;;;;5027675;28;20108;-75
2022/10/17 08:24:01;;;;;;;5.53;3.92;;;15.70;99.90;;;;;;5032805;28;20044;-74
2022/10/17 08:26:28;;;;;;;5.55;4.38;;;15.80;99.90;;;;;;5027934;28;20029;-75
2022/10/17 08:28:53;;;;;;;13.27;4.70;;;15.90;99.90;;;;;;5033422;28;20030;-74
2022/10/17 08:31:20;;;;;;;5.53;4.20;;;16.00;99.90;;;;;;5026487;28;20033;-74
2022/10/17 08:33:47;;;;;;;6.88;3.75;;;16.10;99.90;;;;;;5026524;28;20476;-74
2022/10/17 08:36:16;;;;;;;6.40;3.88;;;16.20;99.90;;;;;;5025552;28;20029;-75
2022/10/17 08:38:43;;;;;;;7.90;3.78;;;16.30;99.90;;;;;;5025154;28;20033;-74
2022/10/17 08:42:00;;;;;;;4.97;3.47;;;16.40;99.90;;;;;;5035578;28;20409;-75
2022/10/17 08:44:44;;;;;;;9.25;3.90;;;16.50;99.90;;;;;;5031273;28;20024;-75
2022/10/17 08:47:14;;;;;;;6.70;3.42;;;16.60;99.90;;;;;;5031844;28;20072;-75
2022/10/17 08:49:46;;;;;;;11.32;3.78;;;16.70;99.90;;;;;;5034558;28;20029;-75
2022/10/17 08:52:39;;;;;;;3.83;3.53;;;16.90;99.90;;;;;;5028245;28;20024;-74
2022/10/17 08:55:14;;;;;;;7.50;3.67;;;17.00;99.90;;;;;;5029562;28;20041;-74
2022/10/17 08:57:40;;;;;;;6.13;4.00;;;17.10;99.90;;;;;;5031756;28;20025;-75
2022/10/17 09:00:15;;;;;;;8.32;4.05;;;17.20;99.90;;;;;;5024905;28;20047;-75
2022/10/17 09:03:05;;;;;;;9.20;5.68;;;17.40;99.90;;;;;;5037118;28;20070;-76
2022/10/17 09:05:51;;;;;;;8.93;4.88;;;17.50;99.90;;;;;;5029380;28;20045;-76
2022/10/17 09:08:43;;;;;;;7.00;3.92;;;17.60;99.90;;;;;;5036055;28;20651;-76
2022/10/17 09:11:46;;;;;;;7.13;3.53;;;17.70;99.90;;;;;;5027321;28;20037;-73
2022/10/17 09:14:27;;;;;;;7.30;3.60;;;17.90;99.90;;;;;;5023318;28;20109;-73
2022/10/17 09:17:10;;;;;;;4.07;3.47;;;18.00;99.90;;;;;;5030622;28;20033;-73
2022/10/17 09:19:55;;;;;;;7.32;3.47;;;18.20;99.90;;;;;;5032629;28;20036;-73
2022/10/17 09:22:27;;;;;;;5.28;3.70;;;18.30;99.90;;;;;;5024895;28;20083;-73
2022/10/17 09:24:54;;;;;;;4.78;3.35;;;18.40;99.90;;;;;;5025021;28;20568;-72
2022/10/17 09:27:43;;;;;;;4.28;3.40;;;18.50;99.90;;;;;;5034994;28;20111;-72
2022/10/17 09:30:20;;;;;;;9.88;4.00;;;18.60;99.90;;;;;;5031711;28;20045;-73
2022/10/17 09:32:46;;;;;;;6.88;3.90;;;18.60;99.90;;;;;;5024122;28;20101;-73
2022/10/17 09:35:16;;;;;;;7.30;3.67;;;18.70;99.90;;;;;;5025522;28;20403;-73
2022/10/17 09:37:43;;;;;;;12.10;3.90;;;18.80;99.90;;;;;;5033060;28;20025;-72
2022/10/17 09:40:23;;;;;;;7.93;3.88;;;18.80;99.90;;;;;;5035346;28;20044;-72
2022/10/17 09:42:50;;;;;;;8.05;4.20;;;18.80;99.90;;;;;;5029389;28;20037;-72
2022/10/17 09:45:24;;;;;;;7.82;3.35;;;18.90;99.90;;;;;;5037222;28;20029;-72
2022/10/17 09:48:28;;;;;;;9.68;4.00;;;19.00;99.90;;;;;;5030173;28;20945;-72
2022/10/17 09:50:55;;;;;;;14.43;3.88;;;19.00;99.90;;;;;;5029058;28;20036;-72
2022/10/17 09:53:33;;;;;;;7.65;3.60;;;19.10;99.90;;;;;;5033056;28;20083;-72
2022/10/17 09:56:03;;;;;;;9.38;3.50;;;19.20;99.90;;;;;;5037347;28;20098;-72
2022/10/17 09:58:56;;;;;;;8.48;3.65;;;19.30;99.90;;;;;;5029301;28;20091;-72
2022/10/17 10:01:21;;;;;;;10.57;4.00;;;19.40;99.90;;;;;;5025043;28;20120;-72
2022/10/17 10:04:06;;;;;;;9.73;4.15;;;19.50;99.90;;;;;;5026706;28;20351;-72
2022/10/17 10:06:32;;;;;;;7.88;3.25;;;19.50;99.90;;;;;;5033666;28;20681;-72
2022/10/17 10:08:58;;;;;;;5.20;3.40;;;19.60;99.90;;;;;;5031069;28;20021;-72
2022/10/17 10:11:45;;;;;;;5.53;3.00;;;19.70;99.90;;;;;;5037768;28;20025;-72
2022/10/17 10:14:21;;;;;;;9.82;3.83;;;19.90;99.90;;;;;;5033456;28;20045;-72
2022/10/17 10:16:48;;;;;;;7.75;2.78;;;20.10;99.90;;;;;;5036617;28;20573;-73
2022/10/17 10:19:29;;;;;;;7.00;3.40;;;20.20;99.90;;;;;;5037263;28;20529;-75
2022/10/17 10:22:03;;;;;;;7.85;2.80;;;20.20;99.90;;;;;;5029918;28;20034;-75
2022/10/17 10:24:29;;;;;;;5.47;3.38;;;20.30;99.90;;;;;;5026759;28;20167;-73
2022/10/17 10:26:58;;;;;;;9.25;3.40;;;20.30;99.90;;;;;;5029914;28;20478;-72
2022/10/17 10:29:40;;;;;;;10.02;2.40;;;20.30;99.90;;;;;;5037345;28;20045;-73
2022/10/17 10:32:25;;;;;;;7.70;2.90;;;20.40;99.90;;;;;;5026763;28;20549;-73
2022/10/17 10:34:53;;;;;;;9.27;2.47;;;20.60;99.90;;;;;;5023502;28;20022;-74
2022/10/17 10:37:27;;;;;;;10.05;2.63;;;20.70;99.90;;;;;;5029318;28;20107;-72
2022/10/17 10:39:57;;;;;;;8.75;2.80;;;20.90;99.90;;;;;;5025946;28;20048;-73
2022/10/17 10:42:27;;;;;;;8.00;4.45;;;20.90;99.90;;;;;;5022161;28;20851;-73
2022/10/17 10:45:16;;;;;;;4.50;2.15;;;21.00;99.90;;;;;;5035116;28;20025;-73
2022/10/17 10:47:57;;;;;;;9.77;2.40;;;21.10;99.90;;;;;;5031209;28;20375;-71
2022/10/17 10:50:44;;;;;;;8.82;3.33;;;21.20;99.90;;;;;;5026237;28;20689;-73
2022/10/17 10:53:18;;;;;;;7.70;2.17;;;21.20;99.90;;;;;;5025974;28;20030;-73
2022/10/17 10:55:52;;;;;;;7.05;2.17;;;21.30;99.90;;;;;;5027527;28;20022;-72
2022/10/17 10:58:46;;;;;;;3.17;2.10;;;21.30;99.90;;;;;;5028936;28;20064;-73
2022/10/17 11:02:01;;;;;;;6.75;2.28;;;21.40;99.90;;;;;;5031572;28;20135;-78
2022/10/17 11:04:41;;;;;;;7.50;2.50;;;21.50;99.90;;;;;;5000860;28;20026;-75
2022/10/17 11:07:27;;;;;;;8.52;2.30;;;21.70;99.90;;;;;;5031806;28;20106;-77
2022/10/17 11:10:15;;;;;;;11.75;3.00;;;21.90;99.90;;;;;;5042768;28;20481;-79
2022/10/17 11:12:51;;;;;;;6.57;2.08;;;22.00;99.90;;;;;;5037342;28;20036;-79
2022/10/17 11:15:24;;;;;;;7.93;2.55;;;22.10;99.90;;;;;;5025106;28;20076;-76
2022/10/17 11:18:03;;;;;;;;;;;22.20;99.90;;;;;;5043589;28;20035;-77
2022/10/17 11:20:51;;;;;;;12.25;2.67;;;22.10;99.90;;;;;;5042373;28;19920;-77
2022/10/17 11:23:33;;;;;;;7.30;2.67;;;22.10;99.90;;;;;;5033296;28;20176;-79
2022/10/17 11:26:04;;;;;;;8.05;2.05;;;22.10;99.90;;;;;;5039056;28;20025;-78
2022/10/17 11:28:30;;;;;;;8.48;2.13;;;22.10;99.90;;;;;;5037887;28;20760;-77
2022/10/17 11:31:03;;;;;;;5.65;2.40;;;22.20;99.90;;;;;;5028650;28;20086;-77
2022/10/17 11:33:53;;;;;;;10.38;2.50;;;22.20;99.90;;;;;;5027521;28;20033;-78
2022/10/17 11:36:24;;;;;;;11.85;2.50;;;22.10;99.90;;;;;;5027793;28;20384;-77
2022/10/17 11:39:17;;;;;;;6.95;1.90;;;22.10;99.90;;;;;;5026823;28;20071;-78
2022/10/17 11:41:52;;;;;;;4.75;2.35;;;22.10;99.90;;;;;;5033590;28;20033;-76
2022/10/17 11:44:41;;;;;;;6.47;2.15;;;22.10;99.90;;;;;;5029412;28;20025;-75
2022/10/17 11:47:12;;;;;;;7.00;1.90;;;22.10;99.90;;;;;;5039766;28;20021;-77
2022/10/17 11:49:43;;;;;;;4.13;1.90;;;22.20;99.90;;;;;;5030262;28;20040;-78
2022/10/17 11:52:19;;;;;;;5.90;2.10;;;22.30;99.90;;;;;;5031267;28;20408;-77
2022/10/17 11:54:52;;;;;;;7.22;2.35;;;22.30;99.90;;;;;;5032209;28;20033;-79
2022/10/17 11:57:40;;;;;;;10.35;2.00;;;22.40;99.90;;;;;;5027594;28;20108;-77
2022/10/17 12:00:21;;;;;;;6.63;2.03;;;22.50;99.90;;;;;;5038283;28;20562;-75
2022/10/17 12:03:10;;;;;;;5.82;2.00;;;22.50;99.90;;;;;;5032397;28;20124;-76
2022/10/17 12:05:42;;;;;;;7.25;2.00;;;22.60;99.90;;;;;;5024632;28;20314;-77
2022/10/17 12:08:19;;;;;;;9.55;2.20;;;22.60;99.90;;;;;;5032081;28;20020;-77
2022/10/17 12:11:27;;;;;;;5.20;1.80;;;22.80;99.90;;;;;;5029803;28;20068;-77
2022/10/17 12:13:55;;;;;;;6.63;1.80;;;22.80;99.90;;;;;;5026363;28;20033;-78
2022/10/17 12:16:20;;;;;;;7.65;2.20;;;22.80;99.90;;;;;;5040130;28;20048;-78
2022/10/17 12:19:09;;;;;;;5.50;1.90;;;22.80;99.90;;;;;;5023714;28;20805;-79
2022/10/17 12:21:56;;;;;;;5.45;1.80;;;22.70;99.90;;;;;;5022753;28;20052;-76
2022/10/17 12:24:40;;;;;;;7.40;1.70;;;22.60;99.90;;;;;;5033648;28;20136;-77
2022/10/17 12:27:22;;;;;;;8.10;2.03;;;22.40;99.90;;;;;;5035773;28;20111;-78
2022/10/17 12:29:49;;;;;;;5.03;1.88;;;22.40;99.90;;;;;;5030740;28;20049;-76
2022/10/17 12:32:15;;;;;;;6.38;1.77;;;22.40;99.90;;;;;;5032720;28;20112;-76
2022/10/17 12:34:54;;;;;;;9.65;1.90;;;22.40;99.90;;;;;;5030187;28;20045;-76
2022/10/17 12:37:42;;;;;;;7.75;1.90;;;22.30;99.90;;;;;;5034523;28;20056;-77
2022/10/17 12:40:35;;;;;;;9.90;1.80;;;22.30;99.90;;;;;;5030480;28;20199;-77
2022/10/17 12:43:27;;;;;;;6.00;2.20;;;22.30;99.90;;;;;;5034372;28;20032;-77
2022/10/17 12:45:57;;;;;;;8.27;1.80;;;22.40;99.90;;;;;;5034883;28;20235;-77
2022/10/17 12:48:32;;;;;;;5.18;1.98;;;22.60;99.90;;;;;;5035212;28;20112;-73
2022/10/17 12:51:08;;;;;;;8.80;2.47;;;22.70;99.90;;;;;;5035567;28;20071;-73
2022/10/17 12:53:48;;;;;;;7.57;2.00;;;22.70;99.90;;;;;;5034972;28;20037;-73
2022/10/17 12:56:33;;;;;;;4.85;1.85;;;22.80;99.90;;;;;;5031769;28;20032;-73
2022/10/17 12:58:59;;;;;;;4.53;1.88;;;22.80;99.90;;;;;;5028887;28;20112;-73
2022/10/17 13:01:31;;;;;;;5.97;2.17;;;22.80;99.90;;;;;;5026454;28;20033;-72
2022/10/17 13:04:01;;;;;;;5.80;1.95;;;22.70;99.90;;;;;;5030799;28;20025;-72
2022/10/17 13:06:30;;;;;;;7.22;1.80;;;22.60;99.90;;;;;;5035652;28;20025;-71
2022/10/17 13:09:03;;;;;;;5.05;2.00;;;22.40;99.90;;;;;;5042290;28;20119;-71
2022/10/17 13:11:32;;;;;;;1.90;1.40;;;22.40;99.90;;;;;;5030746;28;20045;-72